sensor_id;sensor_type;location;lat;lon;timestamp;temperature;humidity
19862;DHT22;10093;48.148;8.542;2023-03-03T00:01:05;-2.60;99.90
19862;DHT22;10093;48.148;8.542;2023-03-03T00:03:31;-2.60;99.90
19862;DHT22;10093;48.148;8.542;2023-03-03T00:05:57;-2.70;99.90
19862;DHT22;10093;48.148;8.542;2023-03-03T00:08:24;-2.60;99.90
19862;DHT22;10093;48.148;8.542;2023-03-03T00:10:50;-2.70;99.90
19862;DHT22;10093;48.148;8.542;2023-03-03T00:13:25;-3.00;99.90
19862;DHT22;10093;48.148;8.542;2023-03-03T00:15:52;-2.80;99.90
19862;DHT22;10093;48.148;8.542;2023-03-03T00:20:54;-3.20;99.90
19862;DHT22;10093;48.148;8.542;2023-03-03T00:23:38;-3.10;99.90
19862;DHT22;10093;48.148;8.542;2023-03-03T00:26:30;-3.10;99.90
19862;DHT22;10093;48.148;8.542;2023-03-03T00:28:58;-2.90;99.90
19862;DHT22;10093;48.148;8.542;2023-03-03T00:31:30;-2.90;99.90
19862;DHT22;10093;48.148;8.542;2023-03-03T00:36:36;-3.20;99.90
19862;DHT22;10093;48.148;8.542;2023-03-03T00:39:42;-3.40;99.90
19862;DHT22;10093;48.148;8.542;2023-03-03T00:42:14;-3.40;99.90
19862;DHT22;10093;48.148;8.542;2023-03-03T00:44:54;-3.50;99.90
19862;DHT22;10093;48.148;8.542;2023-03-03T00:47:27;-3.30;99.90
19862;DHT22;10093;48.148;8.542;2023-03-03T00:50:35;-3.60;99.90
19862;DHT22;10093;48.148;8.542;2023-03-03T00:53:14;-3.60;99.90
19862;DHT22;10093;48.148;8.542;2023-03-03T00:55:42;-3.60;99.90
19862;DHT22;10093;48.148;8.542;2023-03-03T00:58:08;-3.60;99.90
19862;DHT22;10093;48.148;8.542;2023-03-03T01:00:34;-3.70;99.90
19862;DHT22;10093;48.148;8.542;2023-03-03T01:03:05;-3.70;99.90
19862;DHT22;10093;48.148;8.542;2023-03-03T01:05:32;-3.50;99.90
19862;DHT22;10093;48.148;8.542;2023-03-03T01:07:58;-3.50;99.90
19862;DHT22;10093;48.148;8.542;2023-03-03T01:10:25;-3.70;99.90
19862;DHT22;10093;48.148;8.542;2023-03-03T01:12:53;-3.80;99.90
19862;DHT22;10093;48.148;8.542;2023-03-03T01:15:19;-4.00;99.90
19862;DHT22;10093;48.148;8.542;2023-03-03T01:17:44;-4.10;99.90
19862;DHT22;10093;48.148;8.542;2023-03-03T01:20:13;-4.10;99.90
19862;DHT22;10093;48.148;8.542;2023-03-03T01:22:39;-4.00;99.90
19862;DHT22;10093;48.148;8.542;2023-03-03T01:25:05;-3.70;99.90
19862;DHT22;10093;48.148;8.542;2023-03-03T01:27:31;-3.70;99.90
19862;DHT22;10093;48.148;8.542;2023-03-03T01:29:57;-3.40;99.90
19862;DHT22;10093;48.148;8.542;2023-03-03T01:32:23;-3.60;99.90
19862;DHT22;10093;48.148;8.542;2023-03-03T01:34:49;-3.80;99.90
19862;DHT22;10093;48.148;8.542;2023-03-03T01:37:15;-4.00;99.90
19862;DHT22;10093;48.148;8.542;2023-03-03T01:39:41;-4.10;99.90
19862;DHT22;10093;48.148;8.542;2023-03-03T01:42:06;-3.70;99.90
19862;DHT22;10093;48.148;8.542;2023-03-03T01:44:33;-3.60;99.90
19862;DHT22;10093;48.148;8.542;2023-03-03T01:49:59;-4.00;99.90
19862;DHT22;10093;48.148;8.542;2023-03-03T01:52:33;-4.20;99.90
19862;DHT22;10093;48.148;8.542;2023-03-03T01:55:07;-3.90;99.90
19862;DHT22;10093;48.148;8.542;2023-03-03T01:57:39;-3.80;99.90
19862;DHT22;10093;48.148;8.542;2023-03-03T02:00:09;-3.90;99.90
19862;DHT22;10093;48.148;8.542;2023-03-03T02:02:36;-4.00;99.90
19862;DHT22;10093;48.148;8.542;2023-03-03T02:05:02;-3.70;99.90
19862;DHT22;10093;48.148;8.542;2023-03-03T02:07:29;-3.90;99.90
19862;DHT22;10093;48.148;8.542;2023-03-03T02:09:58;-4.10;99.90
19862;DHT22;10093;48.148;8.542;2023-03-03T02:12:32;-4.20;99.90
19862;DHT22;10093;48.148;8.542;2023-03-03T02:14:58;-3.90;99.90
19862;DHT22;10093;48.148;8.542;2023-03-03T02:17:24;-3.80;99.90
19862;DHT22;10093;48.148;8.542;2023-03-03T02:20:06;-4.00;99.90
19862;DHT22;10093;48.148;8.542;2023-03-03T02:22:46;-4.00;99.90
19862;DHT22;10093;48.148;8.542;2023-03-03T02:25:21;-4.20;99.90
19862;DHT22;10093;48.148;8.542;2023-03-03T02:27:49;-4.30;99.90
19862;DHT22;10093;48.148;8.542;2023-03-03T02:30:19;-4.10;99.90
19862;DHT22;10093;48.148;8.542;2023-03-03T02:32:45;-4.20;99.90
19862;DHT22;10093;48.148;8.542;2023-03-03T02:35:40;-4.20;99.90
19862;DHT22;10093;48.148;8.542;2023-03-03T02:38:19;-4.10;99.90
19862;DHT22;10093;48.148;8.542;2023-03-03T02:44:03;-3.90;99.90
19862;DHT22;10093;48.148;8.542;2023-03-03T02:46:33;-3.90;99.90
19862;DHT22;10093;48.148;8.542;2023-03-03T02:48:59;-3.90;99.90
19862;DHT22;10093;48.148;8.542;2023-03-03T02:51:25;-4.00;99.90
19862;DHT22;10093;48.148;8.542;2023-03-03T02:53:50;-4.20;99.90
19862;DHT22;10093;48.148;8.542;2023-03-03T02:56:16;-4.10;99.90
19862;DHT22;10093;48.148;8.542;2023-03-03T02:58:42;-4.00;99.90
19862;DHT22;10093;48.148;8.542;2023-03-03T03:01:07;-4.10;99.90
19862;DHT22;10093;48.148;8.542;2023-03-03T03:03:33;-4.30;99.90
19862;DHT22;10093;48.148;8.542;2023-03-03T03:05:59;-4.30;99.90
19862;DHT22;10093;48.148;8.542;2023-03-03T03:08:25;-4.50;99.90
19862;DHT22;10093;48.148;8.542;2023-03-03T03:10:50;-4.60;99.90
19862;DHT22;10093;48.148;8.542;2023-03-03T03:13:16;-4.70;99.90
19862;DHT22;10093;48.148;8.542;2023-03-03T03:15:44;-4.50;99.90
19862;DHT22;10093;48.148;8.542;2023-03-03T03:18:11;-4.40;99.90
19862;DHT22;10093;48.148;8.542;2023-03-03T03:20:37;-4.20;99.90
19862;DHT22;10093;48.148;8.542;2023-03-03T03:23:04;-4.30;99.90
19862;DHT22;10093;48.148;8.542;2023-03-03T03:25:30;-4.50;99.90
19862;DHT22;10093;48.148;8.542;2023-03-03T03:27:56;-4.60;99.90
19862;DHT22;10093;48.148;8.542;2023-03-03T03:30:22;-4.40;99.90
19862;DHT22;10093;48.148;8.542;2023-03-03T03:32:47;-4.30;99.90
19862;DHT22;10093;48.148;8.542;2023-03-03T03:35:13;-4.20;99.90
19862;DHT22;10093;48.148;8.542;2023-03-03T03:37:41;-4.10;99.90
19862;DHT22;10093;48.148;8.542;2023-03-03T03:40:07;-4.10;99.90
19862;DHT22;10093;48.148;8.542;2023-03-03T03:42:33;-4.00;99.90
19862;DHT22;10093;48.148;8.542;2023-03-03T03:44:59;-4.10;99.90
19862;DHT22;10093;48.148;8.542;2023-03-03T03:47:24;-4.20;99.90
19862;DHT22;10093;48.148;8.542;2023-03-03T03:49:50;-4.00;99.90
19862;DHT22;10093;48.148;8.542;2023-03-03T03:52:16;-4.10;99.90
19862;DHT22;10093;48.148;8.542;2023-03-03T03:54:42;-4.00;99.90
19862;DHT22;10093;48.148;8.542;2023-03-03T03:57:07;-4.10;99.90
19862;DHT22;10093;48.148;8.542;2023-03-03T03:59:33;-4.10;99.90
19862;DHT22;10093;48.148;8.542;2023-03-03T04:01:58;-4.20;99.90
19862;DHT22;10093;48.148;8.542;2023-03-03T04:04:24;-4.40;99.90
19862;DHT22;10093;48.148;8.542;2023-03-03T04:06:50;-4.40;99.90
19862;DHT22;10093;48.148;8.542;2023-03-03T04:09:15;-4.20;99.90
19862;DHT22;10093;48.148;8.542;2023-03-03T04:11:41;-4.20;99.90
19862;DHT22;10093;48.148;8.542;2023-03-03T04:14:06;-4.10;99.90
19862;DHT22;10093;48.148;8.542;2023-03-03T04:16:32;-3.70;99.90
19862;DHT22;10093;48.148;8.542;2023-03-03T04:18:58;-3.60;99.90
19862;DHT22;10093;48.148;8.542;2023-03-03T04:21:24;-3.70;99.90
19862;DHT22;10093;48.148;8.542;2023-03-03T04:23:50;-3.80;99.90
19862;DHT22;10093;48.148;8.542;2023-03-03T04:26:16;-3.50;99.90
19862;DHT22;10093;48.148;8.542;2023-03-03T04:28:42;-3.30;99.90
19862;DHT22;10093;48.148;8.542;2023-03-03T04:31:08;-3.40;99.90
19862;DHT22;10093;48.148;8.542;2023-03-03T04:33:33;-3.20;99.90
19862;DHT22;10093;48.148;8.542;2023-03-03T04:35:59;-3.30;99.90
19862;DHT22;10093;48.148;8.542;2023-03-03T04:38:24;-3.30;99.90
19862;DHT22;10093;48.148;8.542;2023-03-03T04:40:50;-3.20;99.90
19862;DHT22;10093;48.148;8.542;2023-03-03T04:43:16;-3.30;99.90
19862;DHT22;10093;48.148;8.542;2023-03-03T04:45:42;-3.20;99.90
19862;DHT22;10093;48.148;8.542;2023-03-03T04:48:08;-3.00;99.90
19862;DHT22;10093;48.148;8.542;2023-03-03T04:50:34;-3.00;99.90
19862;DHT22;10093;48.148;8.542;2023-03-03T04:52:59;-2.90;99.90
19862;DHT22;10093;48.148;8.542;2023-03-03T04:55:25;-3.10;99.90
19862;DHT22;10093;48.148;8.542;2023-03-03T04:57:50;-3.00;99.90
19862;DHT22;10093;48.148;8.542;2023-03-03T05:00:16;-3.00;99.90
19862;DHT22;10093;48.148;8.542;2023-03-03T05:02:42;-2.90;99.90
19862;DHT22;10093;48.148;8.542;2023-03-03T05:05:08;-3.00;99.90
19862;DHT22;10093;48.148;8.542;2023-03-03T05:07:35;-2.90;99.90
19862;DHT22;10093;48.148;8.542;2023-03-03T05:10:00;-2.90;99.90
19862;DHT22;10093;48.148;8.542;2023-03-03T05:12:26;-2.90;99.90
19862;DHT22;10093;48.148;8.542;2023-03-03T05:14:52;-2.90;99.90
19862;DHT22;10093;48.148;8.542;2023-03-03T05:17:17;-2.80;99.90
19862;DHT22;10093;48.148;8.542;2023-03-03T05:19:43;-2.60;99.90
19862;DHT22;10093;48.148;8.542;2023-03-03T05:22:09;-2.70;99.90
19862;DHT22;10093;48.148;8.542;2023-03-03T05:24:34;-2.70;99.90
19862;DHT22;10093;48.148;8.542;2023-03-03T05:27:00;-2.70;99.90
19862;DHT22;10093;48.148;8.542;2023-03-03T05:29:28;-2.70;99.90
19862;DHT22;10093;48.148;8.542;2023-03-03T05:31:58;-2.60;99.90
19862;DHT22;10093;48.148;8.542;2023-03-03T05:34:24;-2.50;99.90
19862;DHT22;10093;48.148;8.542;2023-03-03T05:36:50;-2.50;99.90
19862;DHT22;10093;48.148;8.542;2023-03-03T05:39:16;-2.60;99.90
19862;DHT22;10093;48.148;8.542;2023-03-03T05:41:41;-2.70;99.90
19862;DHT22;10093;48.148;8.542;2023-03-03T05:44:07;-2.70;99.90
19862;DHT22;10093;48.148;8.542;2023-03-03T05:46:33;-2.70;99.90
19862;DHT22;10093;48.148;8.542;2023-03-03T05:48:59;-2.60;99.90
19862;DHT22;10093;48.148;8.542;2023-03-03T05:51:24;-2.60;99.90
19862;DHT22;10093;48.148;8.542;2023-03-03T05:53:50;-2.60;99.90
19862;DHT22;10093;48.148;8.542;2023-03-03T05:56:16;-2.60;99.90
19862;DHT22;10093;48.148;8.542;2023-03-03T05:58:41;-2.30;99.90
19862;DHT22;10093;48.148;8.542;2023-03-03T06:01:07;-2.10;99.90
19862;DHT22;10093;48.148;8.542;2023-03-03T06:03:33;-2.10;99.90
19862;DHT22;10093;48.148;8.542;2023-03-03T06:05:59;-2.30;99.90
19862;DHT22;10093;48.148;8.542;2023-03-03T06:08:24;-2.30;99.90
19862;DHT22;10093;48.148;8.542;2023-03-03T06:10:50;-2.00;99.90
19862;DHT22;10093;48.148;8.542;2023-03-03T06:13:15;-1.90;99.90
19862;DHT22;10093;48.148;8.542;2023-03-03T06:15:41;-1.90;99.90
19862;DHT22;10093;48.148;8.542;2023-03-03T06:18:07;-2.10;99.90
19862;DHT22;10093;48.148;8.542;2023-03-03T06:20:32;-2.10;99.90
19862;DHT22;10093;48.148;8.542;2023-03-03T06:23:00;-2.10;99.90
19862;DHT22;10093;48.148;8.542;2023-03-03T06:25:26;-2.00;99.90
19862;DHT22;10093;48.148;8.542;2023-03-03T06:27:51;-1.90;99.90
19862;DHT22;10093;48.148;8.542;2023-03-03T06:30:17;-2.00;99.90
19862;DHT22;10093;48.148;8.542;2023-03-03T06:32:43;-1.90;99.90
19862;DHT22;10093;48.148;8.542;2023-03-03T06:35:09;-1.90;99.90
19862;DHT22;10093;48.148;8.542;2023-03-03T06:37:35;-2.10;99.90
19862;DHT22;10093;48.148;8.542;2023-03-03T06:40:01;-2.00;99.90
19862;DHT22;10093;48.148;8.542;2023-03-03T06:42:26;-1.90;99.90
19862;DHT22;10093;48.148;8.542;2023-03-03T06:44:52;-1.80;99.90
19862;DHT22;10093;48.148;8.542;2023-03-03T06:47:18;-1.80;99.90
19862;DHT22;10093;48.148;8.542;2023-03-03T06:49:43;-1.90;99.90
19862;DHT22;10093;48.148;8.542;2023-03-03T06:52:12;-1.80;99.90
19862;DHT22;10093;48.148;8.542;2023-03-03T06:54:38;-1.60;99.90
19862;DHT22;10093;48.148;8.542;2023-03-03T06:57:26;-1.50;99.90
19862;DHT22;10093;48.148;8.542;2023-03-03T06:59:55;-1.50;99.90
19862;DHT22;10093;48.148;8.542;2023-03-03T07:02:22;-1.30;99.90
19862;DHT22;10093;48.148;8.542;2023-03-03T07:04:48;-1.40;99.90
19862;DHT22;10093;48.148;8.542;2023-03-03T07:07:24;-1.40;99.90
19862;DHT22;10093;48.148;8.542;2023-03-03T07:09:55;-1.40;99.90
19862;DHT22;10093;48.148;8.542;2023-03-03T07:12:23;-1.30;99.90
19862;DHT22;10093;48.148;8.542;2023-03-03T07:14:53;-1.30;99.90
19862;DHT22;10093;48.148;8.542;2023-03-03T07:17:22;-1.10;99.90
19862;DHT22;10093;48.148;8.542;2023-03-03T07:19:48;-1.00;99.90
19862;DHT22;10093;48.148;8.542;2023-03-03T07:22:21;-0.90;99.90
19862;DHT22;10093;48.148;8.542;2023-03-03T07:24:53;-0.80;99.90
19862;DHT22;10093;48.148;8.542;2023-03-03T07:27:29;-0.70;99.90
19862;DHT22;10093;48.148;8.542;2023-03-03T07:30:27;-0.70;99.90
19862;DHT22;10093;48.148;8.542;2023-03-03T07:32:57;-0.70;99.90
19862;DHT22;10093;48.148;8.542;2023-03-03T07:35:43;-0.80;99.90
19862;DHT22;10093;48.148;8.542;2023-03-03T07:38:34;-0.70;99.90
19862;DHT22;10093;48.148;8.542;2023-03-03T07:41:02;-0.80;99.90
19862;DHT22;10093;48.148;8.542;2023-03-03T07:44:26;-0.90;99.90
19862;DHT22;10093;48.148;8.542;2023-03-03T07:46:41;-0.70;99.90
19862;DHT22;10093;48.148;8.542;2023-03-03T07:49:34;-0.50;99.90
19862;DHT22;10093;48.148;8.542;2023-03-03T07:52:01;-0.50;99.90
19862;DHT22;10093;48.148;8.542;2023-03-03T07:54:38;-0.50;99.90
19862;DHT22;10093;48.148;8.542;2023-03-03T07:59:50;-0.10;99.90
19862;DHT22;10093;48.148;8.542;2023-03-03T08:02:32;0.00;99.90
19862;DHT22;10093;48.148;8.542;2023-03-03T08:04:59;-0.10;99.90
19862;DHT22;10093;48.148;8.542;2023-03-03T08:07:25;0.20;99.90
19862;DHT22;10093;48.148;8.542;2023-03-03T08:09:57;0.40;99.90
19862;DHT22;10093;48.148;8.542;2023-03-03T08:12:32;0.50;99.90
19862;DHT22;10093;48.148;8.542;2023-03-03T08:15:24;0.60;99.90
19862;DHT22;10093;48.148;8.542;2023-03-03T08:17:52;0.70;99.90
19862;DHT22;10093;48.148;8.542;2023-03-03T08:20:41;0.80;99.90
19862;DHT22;10093;48.148;8.542;2023-03-03T08:23:08;0.90;99.90
19862;DHT22;10093;48.148;8.542;2023-03-03T08:25:34;0.80;99.90
19862;DHT22;10093;48.148;8.542;2023-03-03T08:27:59;0.90;99.90
19862;DHT22;10093;48.148;8.542;2023-03-03T08:30:25;0.90;99.90
19862;DHT22;10093;48.148;8.542;2023-03-03T08:32:50;1.10;99.90
19862;DHT22;10093;48.148;8.542;2023-03-03T08:35:16;1.10;99.90
19862;DHT22;10093;48.148;8.542;2023-03-03T08:37:42;1.20;99.90
19862;DHT22;10093;48.148;8.542;2023-03-03T08:40:08;1.30;99.90
19862;DHT22;10093;48.148;8.542;2023-03-03T08:42:34;1.30;99.90
19862;DHT22;10093;48.148;8.542;2023-03-03T08:44:59;1.30;99.90
19862;DHT22;10093;48.148;8.542;2023-03-03T08:47:25;1.30;99.90
19862;DHT22;10093;48.148;8.542;2023-03-03T08:49:51;1.20;99.90
19862;DHT22;10093;48.148;8.542;2023-03-03T08:52:16;0.90;99.90
19862;DHT22;10093;48.148;8.542;2023-03-03T08:54:42;0.90;99.90
19862;DHT22;10093;48.148;8.542;2023-03-03T08:57:08;1.30;99.90
19862;DHT22;10093;48.148;8.542;2023-03-03T08:59:34;1.60;99.90
19862;DHT22;10093;48.148;8.542;2023-03-03T09:02:04;1.90;99.90
19862;DHT22;10093;48.148;8.542;2023-03-03T09:04:29;2.10;99.90
19862;DHT22;10093;48.148;8.542;2023-03-03T09:06:55;2.20;99.90
19862;DHT22;10093;48.148;8.542;2023-03-03T09:09:20;2.50;99.90
19862;DHT22;10093;48.148;8.542;2023-03-03T09:11:46;2.40;99.90
19862;DHT22;10093;48.148;8.542;2023-03-03T09:14:14;2.20;99.90
19862;DHT22;10093;48.148;8.542;2023-03-03T09:17:00;2.30;99.90
19862;DHT22;10093;48.148;8.542;2023-03-03T09:19:30;2.70;99.90
19862;DHT22;10093;48.148;8.542;2023-03-03T09:22:02;3.10;99.90
19862;DHT22;10093;48.148;8.542;2023-03-03T09:24:35;3.40;99.90
19862;DHT22;10093;48.148;8.542;2023-03-03T09:27:01;3.40;99.90
19862;DHT22;10093;48.148;8.542;2023-03-03T09:29:36;3.60;99.90
19862;DHT22;10093;48.148;8.542;2023-03-03T09:34:43;4.10;99.90
19862;DHT22;10093;48.148;8.542;2023-03-03T09:37:25;4.20;99.90
19862;DHT22;10093;48.148;8.542;2023-03-03T09:39:54;4.50;99.90
19862;DHT22;10093;48.148;8.542;2023-03-03T09:48:42;5.00;99.90
19862;DHT22;10093;48.148;8.542;2023-03-03T09:51:26;5.20;99.90
19862;DHT22;10093;48.148;8.542;2023-03-03T09:56:43;5.70;99.90
19862;DHT22;10093;48.148;8.542;2023-03-03T10:05:04;5.80;99.90
19862;DHT22;10093;48.148;8.542;2023-03-03T10:10:44;6.20;99.90
19862;DHT22;10093;48.148;8.542;2023-03-03T10:16:18;6.50;99.90
19862;DHT22;10093;48.148;8.542;2023-03-03T10:19:09;6.70;99.90
19862;DHT22;10093;48.148;8.542;2023-03-03T10:21:53;5.80;99.90
19862;DHT22;10093;48.148;8.542;2023-03-03T10:24:38;6.50;99.90
19862;DHT22;10093;48.148;8.542;2023-03-03T10:33:00;7.10;99.90
19862;DHT22;10093;48.148;8.542;2023-03-03T10:36:29;7.10;99.90
19862;DHT22;10093;48.148;8.542;2023-03-03T10:38:54;6.50;99.90
19862;DHT22;10093;48.148;8.542;2023-03-03T10:46:58;6.90;99.90
19862;DHT22;10093;48.148;8.542;2023-03-03T10:49:34;7.80;99.90
19862;DHT22;10093;48.148;8.542;2023-03-03T11:08:37;9.30;99.90
19862;DHT22;10093;48.148;8.542;2023-03-03T11:14:08;8.90;99.90
19862;DHT22;10093;48.148;8.542;2023-03-03T11:16:40;9.00;99.90
19862;DHT22;10093;48.148;8.542;2023-03-03T11:22:12;9.40;99.90
19862;DHT22;10093;48.148;8.542;2023-03-03T11:24:48;9.30;99.90
19862;DHT22;10093;48.148;8.542;2023-03-03T11:27:35;8.60;99.90
19862;DHT22;10093;48.148;8.542;2023-03-03T11:32:55;9.30;99.90
19862;DHT22;10093;48.148;8.542;2023-03-03T11:35:45;9.80;99.90
19862;DHT22;10093;48.148;8.542;2023-03-03T11:41:51;9.20;99.90
19862;DHT22;10093;48.148;8.542;2023-03-03T11:44:48;8.10;99.90
19862;DHT22;10093;48.148;8.542;2023-03-03T11:47:31;8.50;99.90
19862;DHT22;10093;48.148;8.542;2023-03-03T11:50:11;7.20;99.90
19862;DHT22;10093;48.148;8.542;2023-03-03T12:00:44;7.80;99.90
19862;DHT22;10093;48.148;8.542;2023-03-03T12:06:00;9.20;99.90
19862;DHT22;10093;48.148;8.542;2023-03-03T12:16:31;9.40;99.90
19862;DHT22;10093;48.148;8.542;2023-03-03T12:19:22;9.30;99.90
19862;DHT22;10093;48.148;8.542;2023-03-03T12:25:07;6.90;99.90
19862;DHT22;10093;48.148;8.542;2023-03-03T12:27:57;8.00;99.90
19862;DHT22;10093;48.148;8.542;2023-03-03T12:41:10;10.50;99.90
19862;DHT22;10093;48.148;8.542;2023-03-03T12:49:22;11.10;99.90
19862;DHT22;10093;48.148;8.542;2023-03-03T12:54:48;10.40;99.90
19862;DHT22;10093;48.148;8.542;2023-03-03T13:00:40;8.70;99.90
19862;DHT22;10093;48.148;8.542;2023-03-03T13:20:02;10.80;99.90
19862;DHT22;10093;48.148;8.542;2023-03-03T13:22:42;10.70;99.90
19862;DHT22;10093;48.148;8.542;2023-03-03T13:28:05;10.20;99.90
19862;DHT22;10093;48.148;8.542;2023-03-03T13:30:34;10.50;99.90
19862;DHT22;10093;48.148;8.542;2023-03-03T13:33:30;10.10;99.90
19862;DHT22;10093;48.148;8.542;2023-03-03T13:36:09;9.50;99.90
19862;DHT22;10093;48.148;8.542;2023-03-03T13:38:40;8.40;99.90
19862;DHT22;10093;48.148;8.542;2023-03-03T13:49:40;9.20;99.90
19862;DHT22;10093;48.148;8.542;2023-03-03T13:52:14;8.40;99.90
19862;DHT22;10093;48.148;8.542;2023-03-03T14:00:18;8.20;99.90
19862;DHT22;10093;48.148;8.542;2023-03-03T14:05:32;8.50;99.90
19862;DHT22;10093;48.148;8.542;2023-03-03T14:11:09;8.60;99.90
19862;DHT22;10093;48.148;8.542;2023-03-03T14:13:49;8.20;99.90
19862;DHT22;10093;48.148;8.542;2023-03-03T14:22:16;8.80;99.90
19862;DHT22;10093;48.148;8.542;2023-03-03T14:25:07;9.00;99.90
19862;DHT22;10093;48.148;8.542;2023-03-03T14:27:39;9.50;99.90
19862;DHT22;10093;48.148;8.542;2023-03-03T14:30:24;8.60;99.90
19862;DHT22;10093;48.148;8.542;2023-03-03T14:33:01;9.20;99.90
19862;DHT22;10093;48.148;8.542;2023-03-03T14:35:49;10.00;99.90
19862;DHT22;10093;48.148;8.542;2023-03-03T14:38:17;9.30;99.90
19862;DHT22;10093;48.148;8.542;2023-03-03T14:40:45;8.90;99.90
19862;DHT22;10093;48.148;8.542;2023-03-03T14:43:36;9.00;99.90
19862;DHT22;10093;48.148;8.542;2023-03-03T14:48:56;9.50;99.90
19862;DHT22;10093;48.148;8.542;2023-03-03T14:51:41;9.90;99.90
19862;DHT22;10093;48.148;8.542;2023-03-03T14:54:33;10.30;99.90
19862;DHT22;10093;48.148;8.542;2023-03-03T15:05:24;10.70;99.90
19862;DHT22;10093;48.148;8.542;2023-03-03T15:10:28;9.80;99.90
19862;DHT22;10093;48.148;8.542;2023-03-03T15:12:54;10.00;99.90
19862;DHT22;10093;48.148;8.542;2023-03-03T15:15:25;10.20;99.90
19862;DHT22;10093;48.148;8.542;2023-03-03T15:20:42;10.30;99.90
19862;DHT22;10093;48.148;8.542;2023-03-03T15:26:11;10.20;99.90
19862;DHT22;10093;48.148;8.542;2023-03-03T15:42:21;9.60;99.90
19862;DHT22;10093;48.148;8.542;2023-03-03T15:45:28;8.80;99.90
19862;DHT22;10093;48.148;8.542;2023-03-03T15:51:01;9.00;99.90
19862;DHT22;10093;48.148;8.542;2023-03-03T15:54:35;8.90;99.90
19862;DHT22;10093;48.148;8.542;2023-03-03T15:59:32;8.60;99.90
19862;DHT22;10093;48.148;8.542;2023-03-03T16:04:37;8.30;99.90
19862;DHT22;10093;48.148;8.542;2023-03-03T16:07:30;8.30;99.90
19862;DHT22;10093;48.148;8.542;2023-03-03T16:10:17;8.10;99.90
19862;DHT22;10093;48.148;8.542;2023-03-03T16:18:57;7.20;99.90
19862;DHT22;10093;48.148;8.542;2023-03-03T16:29:34;7.10;99.90
19862;DHT22;10093;48.148;8.542;2023-03-03T16:33:08;6.90;99.90
19862;DHT22;10093;48.148;8.542;2023-03-03T16:40:57;6.70;99.90
19862;DHT22;10093;48.148;8.542;2023-03-03T16:43:58;6.70;99.90
19862;DHT22;10093;48.148;8.542;2023-03-03T16:46:41;6.50;99.90
19862;DHT22;10093;48.148;8.542;2023-03-03T16:52:11;6.50;99.90
19862;DHT22;10093;48.148;8.542;2023-03-03T16:54:55;6.50;99.90
19862;DHT22;10093;48.148;8.542;2023-03-03T16:57:39;6.30;99.90
19862;DHT22;10093;48.148;8.542;2023-03-03T17:05:54;6.10;99.90
19862;DHT22;10093;48.148;8.542;2023-03-03T17:11:04;5.90;99.90
19862;DHT22;10093;48.148;8.542;2023-03-03T17:16:13;5.50;99.90
19862;DHT22;10093;48.148;8.542;2023-03-03T17:21:48;5.30;99.90
19862;DHT22;10093;48.148;8.542;2023-03-03T17:24:35;5.10;99.90
19862;DHT22;10093;48.148;8.542;2023-03-03T17:30:15;4.70;99.90
19862;DHT22;10093;48.148;8.542;2023-03-03T17:33:08;4.60;99.90
19862;DHT22;10093;48.148;8.542;2023-03-03T17:46:50;3.90;99.90
19862;DHT22;10093;48.148;8.542;2023-03-03T17:55:12;3.50;99.90
19862;DHT22;10093;48.148;8.542;2023-03-03T18:00:42;3.20;99.90
19862;DHT22;10093;48.148;8.542;2023-03-03T18:09:00;2.90;99.90
19862;DHT22;10093;48.148;8.542;2023-03-03T18:11:43;3.10;99.90
19862;DHT22;10093;48.148;8.542;2023-03-03T18:17:18;2.60;99.90
19862;DHT22;10093;48.148;8.542;2023-03-03T18:25:17;1.90;99.90
19862;DHT22;10093;48.148;8.542;2023-03-03T18:27:45;1.70;99.90
19862;DHT22;10093;48.148;8.542;2023-03-03T18:30:19;1.50;99.90
19862;DHT22;10093;48.148;8.542;2023-03-03T18:37:51;1.20;99.90
19862;DHT22;10093;48.148;8.542;2023-03-03T18:40:31;1.10;99.90
19862;DHT22;10093;48.148;8.542;2023-03-03T18:42:57;1.00;99.90
19862;DHT22;10093;48.148;8.542;2023-03-03T18:50:45;0.90;99.90
19862;DHT22;10093;48.148;8.542;2023-03-03T18:55:54;0.60;99.90
19862;DHT22;10093;48.148;8.542;2023-03-03T18:58:41;0.50;99.90
19862;DHT22;10093;48.148;8.542;2023-03-03T19:09:00;-0.10;99.90
19862;DHT22;10093;48.148;8.542;2023-03-03T19:11:39;-0.20;99.90
19862;DHT22;10093;48.148;8.542;2023-03-03T19:16:58;-0.40;99.90
19862;DHT22;10093;48.148;8.542;2023-03-03T19:20:04;-0.50;99.90
19862;DHT22;10093;48.148;8.542;2023-03-03T19:22:44;-0.60;99.90
19862;DHT22;10093;48.148;8.542;2023-03-03T19:25:21;-0.70;99.90
19862;DHT22;10093;48.148;8.542;2023-03-03T19:33:10;-0.90;99.90
19862;DHT22;10093;48.148;8.542;2023-03-03T19:39:07;-1.10;99.90
19862;DHT22;10093;48.148;8.542;2023-03-03T19:47:00;-0.90;99.90
19862;DHT22;10093;48.148;8.542;2023-03-03T19:49:48;-1.00;99.90
19862;DHT22;10093;48.148;8.542;2023-03-03T19:52:23;-1.20;99.90
19862;DHT22;10093;48.148;8.542;2023-03-03T20:05:42;-1.60;99.90
19862;DHT22;10093;48.148;8.542;2023-03-03T20:08:41;-1.60;99.90
19862;DHT22;10093;48.148;8.542;2023-03-03T20:16:54;-1.60;99.90
19862;DHT22;10093;48.148;8.542;2023-03-03T20:20:04;-1.60;99.90
19862;DHT22;10093;48.148;8.542;2023-03-03T20:23:20;-1.60;99.90
19862;DHT22;10093;48.148;8.542;2023-03-03T20:25:28;-1.70;99.90
19862;DHT22;10093;48.148;8.542;2023-03-03T20:31:18;-1.60;99.90
19862;DHT22;10093;48.148;8.542;2023-03-03T20:33:51;-1.70;99.90
19862;DHT22;10093;48.148;8.542;2023-03-03T20:36:43;-1.90;99.90
19862;DHT22;10093;48.148;8.542;2023-03-03T20:39:56;-1.90;99.90
19862;DHT22;10093;48.148;8.542;2023-03-03T21:01:35;-2.30;99.90
19862;DHT22;10093;48.148;8.542;2023-03-03T21:06:47;-2.30;99.90
19862;DHT22;10093;48.148;8.542;2023-03-03T21:11:50;-2.30;99.90
19862;DHT22;10093;48.148;8.542;2023-03-03T21:16:48;-2.10;99.90
19862;DHT22;10093;48.148;8.542;2023-03-03T21:19:31;-2.10;99.90
19862;DHT22;10093;48.148;8.542;2023-03-03T21:21:58;-2.00;99.90
19862;DHT22;10093;48.148;8.542;2023-03-03T21:30:24;-2.00;99.90
19862;DHT22;10093;48.148;8.542;2023-03-03T21:32:50;-2.20;99.90
19862;DHT22;10093;48.148;8.542;2023-03-03T21:37:53;-2.40;99.90
19862;DHT22;10093;48.148;8.542;2023-03-03T21:40:21;-2.50;99.90
19862;DHT22;10093;48.148;8.542;2023-03-03T21:42:53;-2.60;99.90
19862;DHT22;10093;48.148;8.542;2023-03-03T21:45:19;-2.70;99.90
19862;DHT22;10093;48.148;8.542;2023-03-03T21:47:45;-2.20;99.90
19862;DHT22;10093;48.148;8.542;2023-03-03T21:50:12;-2.10;99.90
19862;DHT22;10093;48.148;8.542;2023-03-03T21:52:37;-2.30;99.90
19862;DHT22;10093;48.148;8.542;2023-03-03T21:55:04;-2.30;99.90
19862;DHT22;10093;48.148;8.542;2023-03-03T21:57:30;-2.20;99.90
19862;DHT22;10093;48.148;8.542;2023-03-03T21:59:55;-2.00;99.90
19862;DHT22;10093;48.148;8.542;2023-03-03T22:02:21;-2.10;99.90
19862;DHT22;10093;48.148;8.542;2023-03-03T22:04:46;-2.00;99.90
19862;DHT22;10093;48.148;8.542;2023-03-03T22:07:12;-1.80;99.90
19862;DHT22;10093;48.148;8.542;2023-03-03T22:09:38;-1.70;99.90
19862;DHT22;10093;48.148;8.542;2023-03-03T22:12:04;-1.80;99.90
19862;DHT22;10093;48.148;8.542;2023-03-03T22:14:30;-1.90;99.90
19862;DHT22;10093;48.148;8.542;2023-03-03T22:16:56;-2.00;99.90
19862;DHT22;10093;48.148;8.542;2023-03-03T22:19:22;-2.20;99.90
19862;DHT22;10093;48.148;8.542;2023-03-03T22:21:47;-2.20;99.90